Time;durP1;ratioP1;P1;durP2;ratioP2;P2;SDS_P1;SDS_P2;PMS_P1;PMS_P2;Temp;Humidity;BMP_temperature;BMP_pressure;BME280_temperature;BME280_humidity;BME280_pressure;Samples;Min_cycle;Max_cycle;Signal;HPM_P1;HPM_P2
2023/07/15 00:01:25;;;;;;;27.60;15.53;;;27.70;99.90;;;;;;5016037;23;20499;-51
2023/07/15 00:03:52;;;;;;;34.00;16.40;;;27.70;99.90;;;;;;4994696;28;20029;-52
2023/07/15 00:06:21;;;;;;;37.40;17.40;;;27.70;99.90;;;;;;4993500;28;20026;-50
2023/07/15 00:08:48;;;;;;;41.92;17.30;;;27.70;99.90;;;;;;4994485;28;20113;-51
2023/07/15 00:11:27;;;;;;;31.02;16.50;;;27.70;99.90;;;;;;4994193;28;20022;-52
2023/07/15 00:13:53;;;;;;;41.15;16.17;;;27.70;99.90;;;;;;4994393;28;20448;-53
2023/07/15 00:16:20;;;;;;;38.55;16.65;;;27.70;99.90;;;;;;4994034;28;20030;-53
2023/07/15 00:18:45;;;;;;;32.88;16.48;;;27.60;99.90;;;;;;4994272;28;20023;-52
2023/07/15 00:21:20;;;;;;;31.75;16.00;;;27.60;99.90;;;;;;4993491;28;20356;-52
2023/07/15 00:23:48;;;;;;;32.28;15.63;;;27.60;99.90;;;;;;4994111;28;20551;-50
2023/07/15 00:26:15;;;;;;;30.98;14.80;;;27.60;99.90;;;;;;4994215;28;20054;-50
2023/07/15 00:28:40;;;;;;;31.80;17.15;;;27.60;99.90;;;;;;4993782;28;20530;-51
2023/07/15 00:31:13;;;;;;;23.75;14.18;;;27.60;99.90;;;;;;4993848;28;20061;-50
2023/07/15 00:33:40;;;;;;;34.58;17.52;;;27.60;99.90;;;;;;4994094;28;20494;-50
2023/07/15 00:36:06;;;;;;;30.17;16.27;;;27.60;99.90;;;;;;4993104;28;20471;-50
2023/07/15 00:38:34;;;;;;;27.60;14.48;;;27.60;99.90;;;;;;4994024;28;20491;-52
2023/07/15 00:41:00;;;;;;;30.58;15.57;;;27.60;99.90;;;;;;4990727;28;20030;-47
2023/07/15 00:43:58;;;;;;;28.88;15.30;;;27.70;99.90;;;;;;4973824;28;20026;-52
2023/07/15 00:47:02;;;;;;;29.80;14.05;;;27.60;99.90;;;;;;4974399;28;20057;-52
2023/07/15 00:49:35;;;;;;;23.02;10.68;;;27.70;99.90;;;;;;4974036;28;20026;-52
2023/07/15 00:52:15;;;;;;;28.65;13.20;;;27.70;99.90;;;;;;4972728;28;20030;-52
2023/07/15 00:54:53;;;;;;;21.73;10.38;;;27.80;99.90;;;;;;4973028;28;20019;-51
2023/07/15 00:57:20;;;;;;;30.50;12.38;;;27.90;99.90;;;;;;4974085;28;20384;-52
2023/07/15 00:59:48;;;;;;;21.20;12.02;;;28.00;99.90;;;;;;4973310;28;20023;-53
2023/07/15 01:02:15;;;;;;;30.80;12.02;;;28.00;99.90;;;;;;4973025;28;20074;-52
2023/07/15 01:04:41;;;;;;;28.90;10.80;;;28.10;99.90;;;;;;4973734;28;20023;-51
2023/07/15 01:07:07;;;;;;;21.40;10.82;;;28.20;99.90;;;;;;4972600;28;20392;-52
2023/07/15 01:09:34;;;;;;;25.13;11.45;;;28.30;99.90;;;;;;4972702;28;20018;-52
2023/07/15 01:12:00;;;;;;;17.27;10.43;;;28.30;99.90;;;;;;4972092;28;20039;-52
2023/07/15 01:14:29;;;;;;;25.20;12.48;;;28.40;99.90;;;;;;4971597;28;20031;-53
2023/07/15 01:16:55;;;;;;;22.42;11.18;;;28.50;99.90;;;;;;4966266;28;20066;-53
2023/07/15 01:19:21;;;;;;;23.77;10.88;;;28.50;99.90;;;;;;4959440;28;20047;-53
2023/07/15 01:21:49;;;;;;;25.42;12.15;;;28.60;99.90;;;;;;4966503;28;20550;-53
2023/07/15 01:24:15;;;;;;;23.02;10.68;;;28.60;99.90;;;;;;4967649;28;20074;-51
2023/07/15 01:26:41;;;;;;;27.08;11.60;;;28.70;99.90;;;;;;4956891;28;20087;-53
2023/07/15 01:29:07;;;;;;;25.65;10.10;;;28.70;99.90;;;;;;4952517;29;20374;-53
2023/07/15 01:31:34;;;;;;;18.25;9.65;;;28.80;99.90;;;;;;4953817;29;20031;-53
2023/07/15 01:34:00;;;;;;;20.00;10.27;;;28.80;99.90;;;;;;4952422;29;20027;-52
2023/07/15 01:36:26;;;;;;;26.98;13.93;;;28.90;99.90;;;;;;4952480;29;20369;-54
2023/07/15 01:38:52;;;;;;;23.80;14.57;;;28.90;99.90;;;;;;4951066;29;20019;-53
2023/07/15 01:41:18;;;;;;;20.42;9.60;;;28.90;99.90;;;;;;4952180;28;20316;-53
2023/07/15 01:43:44;;;;;;;21.33;9.85;;;29.00;99.90;;;;;;4952423;28;20110;-53
2023/07/15 01:46:10;;;;;;;23.50;10.43;;;28.90;99.90;;;;;;4952362;28;20391;-54
2023/07/15 01:48:36;;;;;;;26.08;10.40;;;29.00;99.90;;;;;;4953799;28;20344;-54
2023/07/15 01:51:02;;;;;;;19.63;11.23;;;29.00;99.90;;;;;;4954407;28;20038;-54
2023/07/15 01:53:28;;;;;;;30.33;15.38;;;29.00;99.90;;;;;;4954362;28;20032;-53
2023/07/15 01:55:54;;;;;;;19.48;11.30;;;29.00;99.90;;;;;;4937126;29;20024;-54
2023/07/15 01:58:20;;;;;;;19.35;12.50;;;29.00;99.90;;;;;;4954413;28;20023;-54
2023/07/15 02:00:48;;;;;;;21.23;12.02;;;29.00;99.90;;;;;;4954786;29;20071;-55
2023/07/15 02:03:14;;;;;;;24.15;13.00;;;29.00;99.90;;;;;;4954347;28;20029;-53
2023/07/15 02:05:39;;;;;;;19.20;10.18;;;29.00;99.90;;;;;;4953947;29;20031;-53
2023/07/15 02:08:05;;;;;;;30.30;16.17;;;29.00;99.90;;;;;;4954110;29;20023;-53
2023/07/15 02:10:31;;;;;;;31.48;16.05;;;29.00;99.90;;;;;;4954240;28;20195;-53
2023/07/15 02:12:57;;;;;;;31.52;13.25;;;29.00;99.90;;;;;;4953982;28;20039;-54
2023/07/15 02:15:23;;;;;;;28.67;12.43;;;29.00;99.90;;;;;;4953430;28;20148;-53
2023/07/15 02:17:49;;;;;;;24.13;12.00;;;29.00;99.90;;;;;;4954007;29;20039;-53
2023/07/15 02:20:15;;;;;;;24.67;10.82;;;29.00;99.90;;;;;;4954367;28;20019;-53
2023/07/15 02:22:41;;;;;;;34.70;15.68;;;29.00;99.90;;;;;;4954040;28;20054;-53
2023/07/15 02:25:08;;;;;;;27.33;15.98;;;29.00;99.90;;;;;;4953842;29;20115;-53
2023/07/15 02:27:34;;;;;;;25.23;14.65;;;29.00;99.90;;;;;;4953967;28;20030;-52
2023/07/15 02:30:00;;;;;;;19.15;10.57;;;29.00;99.90;;;;;;4954021;28;20027;-52
2023/07/15 02:32:42;;;;;;;17.75;9.95;;;29.00;99.90;;;;;;4953527;29;20384;-52
2023/07/15 02:35:10;;;;;;;23.95;14.48;;;29.00;99.90;;;;;;4953745;28;20098;-54
2023/07/15 02:37:41;;;;;;;29.45;14.63;;;29.00;99.90;;;;;;4953902;28;20022;-53
2023/07/15 02:40:09;;;;;;;27.02;11.60;;;29.10;99.90;;;;;;4953808;28;20082;-54
2023/07/15 02:42:36;;;;;;;23.63;10.55;;;29.10;99.90;;;;;;4953720;28;20096;-53
2023/07/15 02:45:04;;;;;;;25.67;14.52;;;29.10;99.90;;;;;;4953665;29;20035;-53
2023/07/15 02:47:31;;;;;;;20.30;10.98;;;29.10;99.90;;;;;;4953657;28;20154;-53
2023/07/15 02:49:58;;;;;;;;;;;29.10;99.90;;;;;;4954254;28;20035;-53
2023/07/15 02:52:24;;;;;;;17.90;9.85;;;29.10;99.90;;;;;;4953733;29;19957;-53
2023/07/15 02:54:49;;;;;;;21.77;12.82;;;29.10;99.90;;;;;;4953987;29;20055;-55
2023/07/15 02:57:15;;;;;;;34.03;17.38;;;29.10;99.90;;;;;;4953889;29;20027;-55
2023/07/15 02:59:41;;;;;;;31.70;17.17;;;29.10;99.90;;;;;;4953635;28;20038;-54
2023/07/15 03:02:10;;;;;;;24.35;15.10;;;29.10;99.90;;;;;;5006003;23;20065;-48
2023/07/15 03:04:37;;;;;;;35.83;17.27;;;29.10;99.90;;;;;;5010635;28;20101;-48
2023/07/15 03:07:04;;;;;;;31.08;15.43;;;29.10;99.90;;;;;;5010606;28;20026;-47
2023/07/15 03:09:30;;;;;;;29.23;15.48;;;29.10;99.90;;;;;;5011924;28;20030;-49
2023/07/15 03:11:56;;;;;;;32.75;13.75;;;29.00;99.90;;;;;;5010392;28;20034;-49
2023/07/15 03:14:22;;;;;;;21.75;12.40;;;29.00;99.90;;;;;;5010442;28;20041;-48
2023/07/15 03:16:51;;;;;;;27.67;10.82;;;29.00;99.90;;;;;;5010781;28;20022;-47
2023/07/15 03:19:17;;;;;;;30.92;13.07;;;29.00;99.90;;;;;;5009293;28;20040;-49
2023/07/15 03:21:43;;;;;;;21.75;10.13;;;29.00;99.90;;;;;;4993657;28;20426;-47
2023/07/15 03:24:12;;;;;;;22.58;12.93;;;29.00;99.90;;;;;;5011352;28;20033;-48
2023/07/15 03:26:41;;;;;;;26.00;11.85;;;29.00;99.90;;;;;;5010009;28;20030;-49
2023/07/15 03:29:08;;;;;;;27.52;13.18;;;29.10;99.90;;;;;;5015000;28;20080;-49
2023/07/15 03:31:35;;;;;;;27.33;12.60;;;29.00;99.90;;;;;;5014832;28;20081;-49
2023/07/15 03:34:02;;;;;;;30.02;14.85;;;29.00;99.90;;;;;;5014815;28;20445;-47
2023/07/15 03:36:28;;;;;;;26.25;14.35;;;29.00;99.90;;;;;;5013320;28;20018;-46
2023/07/15 03:38:54;;;;;;;26.38;11.73;;;29.00;99.90;;;;;;5014501;28;20030;-47
2023/07/15 03:41:20;;;;;;;32.20;16.08;;;29.00;99.90;;;;;;4997378;28;20061;-48
2023/07/15 03:43:46;;;;;;;34.08;15.38;;;29.00;99.90;;;;;;5014397;28;20046;-48
2023/07/15 03:46:12;;;;;;;23.67;14.07;;;29.00;99.90;;;;;;5013399;28;20021;-47
2023/07/15 03:48:39;;;;;;;30.38;14.18;;;29.00;99.90;;;;;;5029620;28;20164;-47
2023/07/15 03:51:06;;;;;;;48.03;16.80;;;29.00;99.90;;;;;;5029487;28;20470;-48
2023/07/15 03:53:33;;;;;;;40.42;17.38;;;29.00;99.90;;;;;;5014265;28;20042;-47
2023/07/15 03:55:58;;;;;;;27.38;13.52;;;29.00;99.90;;;;;;5013035;28;20117;-47
2023/07/15 03:58:24;;;;;;;25.75;12.13;;;28.90;99.90;;;;;;5014335;28;20109;-48
2023/07/15 04:00:50;;;;;;;25.15;12.65;;;28.90;99.90;;;;;;5009732;28;20050;-47
2023/07/15 04:03:16;;;;;;;25.30;13.57;;;28.90;99.90;;;;;;5013034;28;20482;-48
2023/07/15 04:05:42;;;;;;;27.88;12.20;;;28.90;99.90;;;;;;5012788;28;20151;-48
2023/07/15 04:08:08;;;;;;;24.52;15.15;;;29.00;99.90;;;;;;4993553;28;20478;-47
2023/07/15 04:10:34;;;;;;;34.95;15.45;;;28.90;99.90;;;;;;5007875;28;20037;-47
2023/07/15 04:12:59;;;;;;;31.60;18.15;;;28.90;99.90;;;;;;5013992;28;20386;-48
2023/07/15 04:15:25;;;;;;;18.13;9.80;;;28.90;99.90;;;;;;5012763;28;20018;-48
2023/07/15 04:17:51;;;;;;;37.33;20.40;;;28.90;99.90;;;;;;5029433;28;20026;-48
2023/07/15 04:20:17;;;;;;;28.20;16.13;;;28.90;99.90;;;;;;5013943;28;20032;-47
2023/07/15 04:22:43;;;;;;;46.20;22.92;;;28.80;99.90;;;;;;5013957;28;20029;-48
2023/07/15 04:25:11;;;;;;;67.07;24.27;;;28.80;99.90;;;;;;5013985;28;20064;-48
2023/07/15 04:27:41;;;;;;;30.73;19.27;;;28.80;99.90;;;;;;5012373;28;20080;-48
2023/07/15 04:30:11;;;;;;;41.00;23.95;;;28.70;99.90;;;;;;5013759;28;20026;-48
2023/07/15 04:32:38;;;;;;;41.20;23.73;;;28.70;99.90;;;;;;5013679;28;20092;-47
2023/07/15 04:35:04;;;;;;;36.58;20.58;;;28.60;99.90;;;;;;5013634;28;20029;-48
2023/07/15 04:37:30;;;;;;;41.05;18.67;;;28.60;99.90;;;;;;5013431;28;20475;-47
2023/07/15 04:39:56;;;;;;;32.65;19.13;;;28.50;99.90;;;;;;5012359;28;20101;-47
2023/07/15 04:42:22;;;;;;;32.78;14.75;;;28.50;99.90;;;;;;5013454;28;20526;-47
2023/07/15 04:44:48;;;;;;;33.38;18.73;;;28.50;99.90;;;;;;5013407;28;20022;-48
2023/07/15 04:47:13;;;;;;;34.90;24.77;;;28.50;99.90;;;;;;5013489;28;20052;-50
2023/07/15 04:49:39;;;;;;;32.30;21.00;;;28.40;99.90;;;;;;5013221;28;20093;-48
2023/07/15 04:52:05;;;;;;;30.92;20.83;;;28.40;99.90;;;;;;5011841;28;20054;-49
2023/07/15 04:54:31;;;;;;;49.42;28.33;;;28.40;99.90;;;;;;5013274;28;20057;-48
2023/07/15 04:56:57;;;;;;;34.90;25.65;;;28.40;99.90;;;;;;5012711;28;20057;-48
2023/07/15 04:59:23;;;;;;;39.63;26.13;;;28.40;99.90;;;;;;5011844;28;20026;-48
2023/07/15 05:01:49;;;;;;;43.47;23.63;;;28.40;99.90;;;;;;5012701;28;20040;-49
2023/07/15 05:04:15;;;;;;;47.58;24.38;;;28.40;99.90;;;;;;5013308;28;20036;-47
2023/07/15 05:06:41;;;;;;;38.63;23.05;;;28.30;99.90;;;;;;5011502;28;20383;-47
2023/07/15 05:09:08;;;;;;;28.80;18.90;;;28.30;99.90;;;;;;5013257;28;20433;-47
2023/07/15 05:11:35;;;;;;;51.05;28.50;;;28.30;99.90;;;;;;5027945;28;20022;-47
2023/07/15 05:14:01;;;;;;;39.65;24.63;;;28.30;99.90;;;;;;5012724;28;20030;-48
2023/07/15 05:16:27;;;;;;;31.83;17.73;;;28.30;99.90;;;;;;5012865;28;20108;-48
2023/07/15 05:18:53;;;;;;;46.38;28.15;;;28.20;99.90;;;;;;5013197;28;20018;-47
2023/07/15 05:21:19;;;;;;;36.13;23.15;;;28.20;99.90;;;;;;5011374;28;20512;-48
2023/07/15 05:23:45;;;;;;;41.58;23.10;;;28.20;99.90;;;;;;5012905;28;20018;-48
2023/07/15 05:26:11;;;;;;;54.47;29.75;;;28.10;99.90;;;;;;5012801;28;20034;-47
2023/07/15 05:28:38;;;;;;;53.47;29.27;;;28.00;99.90;;;;;;5028125;28;20018;-48
2023/07/15 05:31:04;;;;;;;37.05;19.42;;;28.10;99.90;;;;;;5012810;28;20029;-48
2023/07/15 05:33:30;;;;;;;42.70;21.88;;;28.00;99.90;;;;;;5012431;28;20030;-48
2023/07/15 05:35:57;;;;;;;45.73;26.70;;;28.10;99.90;;;;;;5012720;28;20045;-48
2023/07/15 05:38:24;;;;;;;39.55;21.02;;;28.10;99.90;;;;;;5012456;28;20021;-47
2023/07/15 05:40:52;;;;;;;46.00;22.33;;;28.00;99.90;;;;;;5012389;28;20030;-48
2023/07/15 05:43:21;;;;;;;43.60;24.92;;;28.00;99.90;;;;;;5012498;28;20022;-48
2023/07/15 05:45:47;;;;;;;37.45;22.92;;;28.00;99.90;;;;;;5012561;28;20474;-48
2023/07/15 05:48:13;;;;;;;45.88;20.85;;;28.00;99.90;;;;;;5012488;28;20561;-47
2023/07/15 05:50:39;;;;;;;33.80;18.30;;;27.90;99.90;;;;;;5011594;28;20100;-47
2023/07/15 05:53:06;;;;;;;41.22;22.83;;;27.90;99.90;;;;;;5010766;28;20037;-47
2023/07/15 05:55:35;;;;;;;39.92;20.95;;;27.80;99.90;;;;;;5012177;28;20484;-47
2023/07/15 05:58:01;;;;;;;36.45;20.50;;;27.80;99.90;;;;;;5011939;28;20037;-48
2023/07/15 06:00:28;;;;;;;48.60;24.45;;;27.70;99.90;;;;;;5027581;28;20022;-48
2023/07/15 06:02:54;;;;;;;35.70;21.25;;;27.70;99.90;;;;;;5012332;28;20100;-48
2023/07/15 06:05:20;;;;;;;45.08;23.13;;;27.70;99.90;;;;;;5011893;28;20013;-47
2023/07/15 06:07:46;;;;;;;45.30;23.83;;;27.60;99.90;;;;;;5012198;28;20108;-48
2023/07/15 06:10:11;;;;;;;42.92;24.83;;;27.60;99.90;;;;;;5011970;28;20013;-47
2023/07/15 06:12:37;;;;;;;34.63;20.20;;;27.70;99.90;;;;;;5010783;28;20045;-46
2023/07/15 06:15:04;;;;;;;47.95;29.45;;;27.70;99.90;;;;;;5026957;28;20030;-47
2023/07/15 06:17:30;;;;;;;46.53;28.00;;;27.70;99.90;;;;;;5012194;28;20479;-46
2023/07/15 06:19:56;;;;;;;48.33;28.95;;;27.60;99.90;;;;;;5011955;28;20481;-46
2023/07/15 06:22:21;;;;;;;47.42;27.98;;;27.60;99.90;;;;;;5011959;28;20120;-46
2023/07/15 06:24:47;;;;;;;50.80;27.83;;;27.60;99.90;;;;;;5011670;28;20052;-47
2023/07/15 06:27:13;;;;;;;48.67;29.40;;;27.50;99.90;;;;;;5011911;28;20040;-47
2023/07/15 06:29:39;;;;;;;50.38;25.75;;;27.50;99.90;;;;;;5012047;28;20018;-47
2023/07/15 06:32:05;;;;;;;48.38;26.98;;;27.40;99.90;;;;;;5011928;28;20526;-47
2023/07/15 06:34:31;;;;;;;50.38;26.40;;;27.40;99.90;;;;;;5012261;28;20109;-47
2023/07/15 06:36:57;;;;;;;55.78;35.25;;;27.40;99.90;;;;;;5012400;28;20026;-47
2023/07/15 06:39:23;;;;;;;59.38;26.95;;;27.40;99.90;;;;;;5010466;28;20018;-47
2023/07/15 06:41:52;;;;;;;48.95;25.83;;;27.30;99.90;;;;;;5011766;28;20045;-47
2023/07/15 06:44:18;;;;;;;44.78;24.63;;;27.30;99.90;;;;;;5011843;28;20037;-48
2023/07/15 06:46:44;;;;;;;41.90;24.48;;;27.20;99.90;;;;;;5011544;28;20075;-47
2023/07/15 06:49:09;;;;;;;47.78;24.42;;;27.10;99.90;;;;;;5011673;28;20352;-47
2023/07/15 06:51:35;;;;;;;48.08;21.40;;;27.10;99.90;;;;;;5011435;28;20023;-47
2023/07/15 06:54:01;;;;;;;38.55;21.10;;;27.10;99.90;;;;;;5012008;28;20092;-47
2023/07/15 06:56:28;;;;;;;40.63;22.85;;;27.10;99.90;;;;;;5012038;28;20021;-48
2023/07/15 06:58:54;;;;;;;44.57;21.53;;;27.10;99.90;;;;;;5011480;28;20022;-48
2023/07/15 07:01:20;;;;;;;39.60;22.52;;;27.10;99.90;;;;;;5027469;28;20279;-47
2023/07/15 07:03:46;;;;;;;41.13;22.83;;;27.10;99.90;;;;;;5030492;28;20473;-48
2023/07/15 07:06:12;;;;;;;39.10;20.85;;;27.00;99.90;;;;;;5014933;28;20112;-48
2023/07/15 07:08:37;;;;;;;46.85;22.35;;;27.00;99.90;;;;;;5015458;28;20014;-47
2023/07/15 07:11:03;;;;;;;39.08;21.13;;;27.00;99.90;;;;;;5013683;28;20099;-47
2023/07/15 07:13:29;;;;;;;41.65;20.50;;;27.00;99.90;;;;;;5030431;28;20038;-48
2023/07/15 07:15:58;;;;;;;34.30;18.33;;;27.00;99.90;;;;;;5015173;28;20026;-47
2023/07/15 07:18:27;;;;;;;45.58;20.63;;;27.00;99.90;;;;;;5015135;28;20030;-46
2023/07/15 07:21:00;;;;;;;36.92;21.40;;;27.00;99.90;;;;;;5013556;28;20026;-47
2023/07/15 07:23:26;;;;;;;40.97;20.20;;;27.00;99.90;;;;;;5014934;28;20093;-48
2023/07/15 07:25:55;;;;;;;44.10;19.80;;;27.00;99.90;;;;;;5013779;28;20033;-47
2023/07/15 07:28:39;;;;;;;31.83;18.17;;;27.00;99.90;;;;;;5000117;28;20022;-47
2023/07/15 07:31:05;;;;;;;37.10;19.10;;;27.00;99.90;;;;;;5014759;28;20386;-47
2023/07/15 07:33:30;;;;;;;38.60;19.55;;;27.00;99.90;;;;;;5002175;28;20033;-47
2023/07/15 07:35:56;;;;;;;41.17;20.15;;;27.00;99.90;;;;;;5014685;28;20029;-48
2023/07/15 07:38:22;;;;;;;41.28;18.42;;;27.00;99.90;;;;;;5014599;28;20126;-47
2023/07/15 07:40:48;;;;;;;29.60;18.45;;;27.00;99.90;;;;;;5014625;28;20080;-47
2023/07/15 07:43:13;;;;;;;35.35;17.65;;;27.00;99.90;;;;;;5014485;28;20104;-46
2023/07/15 07:45:39;;;;;;;32.60;17.27;;;27.00;99.90;;;;;;5014422;28;20101;-47
2023/07/15 07:48:05;;;;;;;28.85;15.77;;;27.00;99.90;;;;;;5014609;28;20030;-47
2023/07/15 07:50:31;;;;;;;32.53;15.45;;;27.00;99.90;;;;;;5029675;28;20026;-47
2023/07/15 07:52:56;;;;;;;28.30;13.70;;;27.10;99.90;;;;;;5029616;28;20038;-47
2023/07/15 07:55:23;;;;;;;22.45;13.15;;;27.10;99.90;;;;;;5014441;28;20022;-47
2023/07/15 07:57:49;;;;;;;26.98;11.85;;;27.10;99.90;;;;;;5014066;28;20030;-47
2023/07/15 08:00:15;;;;;;;29.83;12.40;;;27.10;99.90;;;;;;5014513;28;20502;-48
2023/07/15 08:02:40;;;;;;;26.38;11.00;;;27.10;99.90;;;;;;5014012;28;20073;-48
2023/07/15 08:05:08;;;;;;;26.13;10.48;;;27.20;99.90;;;;;;5000927;28;20474;-48
2023/07/15 08:07:34;;;;;;;19.92;10.27;;;27.20;99.90;;;;;;5014473;28;20022;-48
2023/07/15 08:10:00;;;;;;;24.80;10.13;;;27.20;99.90;;;;;;5013916;28;20029;-48
2023/07/15 08:12:26;;;;;;;18.95;8.82;;;27.20;99.90;;;;;;5013111;28;20042;-49
2023/07/15 08:14:52;;;;;;;16.08;7.25;;;27.20;99.90;;;;;;5013859;28;20022;-49
2023/07/15 08:17:18;;;;;;;19.65;7.63;;;27.20;99.90;;;;;;5014143;28;20030;-48
2023/07/15 08:19:44;;;;;;;23.20;8.05;;;27.30;99.90;;;;;;5013700;28;20049;-48
2023/07/15 08:22:09;;;;;;;16.27;6.95;;;27.20;99.90;;;;;;5013899;28;20101;-48
2023/07/15 08:24:35;;;;;;;23.02;7.43;;;27.30;99.90;;;;;;5013850;28;20026;-48
2023/07/15 08:27:02;;;;;;;20.25;6.95;;;27.30;99.90;;;;;;5013718;28;20025;-48
2023/07/15 08:29:28;;;;;;;20.02;7.28;;;27.30;99.90;;;;;;5028892;28;20437;-48
2023/07/15 08:31:53;;;;;;;19.48;6.28;;;27.30;99.90;;;;;;5013538;28;20029;-48
2023/07/15 08:34:19;;;;;;;18.55;6.88;;;27.30;99.90;;;;;;5013534;28;20083;-53
2023/07/15 08:36:45;;;;;;;13.75;6.47;;;27.20;99.90;;;;;;5013437;28;20117;-48
2023/07/15 08:39:11;;;;;;;17.20;7.10;;;27.20;99.90;;;;;;5013762;28;20069;-48
2023/07/15 08:41:38;;;;;;;19.98;6.93;;;27.20;99.90;;;;;;5013687;28;20025;-49
2023/07/15 08:44:04;;;;;;;20.02;7.53;;;27.20;99.90;;;;;;5013807;28;20493;-49
2023/07/15 08:46:30;;;;;;;14.43;6.15;;;27.30;99.90;;;;;;5028751;28;20021;-48
2023/07/15 08:48:58;;;;;;;18.42;6.68;;;27.30;99.90;;;;;;5013542;28;20036;-48
2023/07/15 08:51:34;;;;;;;19.02;6.72;;;27.40;99.90;;;;;;5013495;28;20092;-48
2023/07/15 08:54:05;;;;;;;27.33;7.03;;;27.40;99.90;;;;;;5028737;28;20045;-49
2023/07/15 08:56:34;;;;;;;15.70;6.95;;;27.30;99.90;;;;;;5013471;28;20738;-48
2023/07/15 08:59:01;;;;;;;16.15;5.70;;;27.40;99.90;;;;;;5013177;28;20127;-49
2023/07/15 09:01:26;;;;;;;25.67;5.90;;;27.40;99.90;;;;;;5012948;28;20065;-48
2023/07/15 09:03:52;;;;;;;16.33;4.72;;;27.40;99.90;;;;;;5003084;28;20050;-49
2023/07/15 09:06:18;;;;;;;19.10;4.85;;;27.40;99.90;;;;;;5003468;28;20105;-48
2023/07/15 09:08:50;;;;;;;15.15;4.60;;;27.40;99.90;;;;;;4999682;28;20034;-48
2023/07/15 09:11:16;;;;;;;12.30;4.68;;;27.40;99.90;;;;;;5005351;28;20022;-48
2023/07/15 09:13:43;;;;;;;15.57;4.13;;;27.40;99.90;;;;;;5006161;28;20045;-48
2023/07/15 09:16:09;;;;;;;16.25;5.40;;;27.40;99.90;;;;;;4993069;28;20031;-48
2023/07/15 09:18:42;;;;;;;12.82;4.57;;;27.30;99.90;;;;;;5000710;28;20033;-48
2023/07/15 09:21:13;;;;;;;16.17;4.25;;;27.40;99.90;;;;;;5005693;28;20422;-47
2023/07/15 09:23:41;;;;;;;16.92;4.43;;;27.40;99.90;;;;;;4993298;28;20030;-47
2023/07/15 09:26:08;;;;;;;14.75;4.22;;;27.40;99.90;;;;;;4993368;28;20036;-48
2023/07/15 09:28:35;;;;;;;23.33;5.88;;;27.40;99.90;;;;;;5005657;28;20424;-48
2023/07/15 09:31:00;;;;;;;18.42;5.43;;;27.40;99.90;;;;;;4993096;28;20018;-49
2023/07/15 09:33:33;;;;;;;16.40;5.00;;;27.40;99.90;;;;;;4992799;28;20057;-48
2023/07/15 09:36:02;;;;;;;22.25;9.02;;;27.40;99.90;;;;;;4993627;28;20137;-48
2023/07/15 09:38:37;;;;;;;26.05;14.18;;;27.40;99.90;;;;;;5027616;28;20932;-48
2023/07/15 09:41:05;;;;;;;25.77;9.50;;;27.40;99.90;;;;;;5012565;28;20025;-48
2023/07/15 09:43:46;;;;;;;18.60;6.07;;;27.40;99.90;;;;;;5004103;28;20031;-48
2023/07/15 09:46:17;;;;;;;20.77;6.95;;;27.40;99.90;;;;;;4999587;28;20379;-47
2023/07/15 09:48:47;;;;;;;16.77;5.32;;;27.50;99.90;;;;;;5001260;28;20013;-47
2023/07/15 09:51:15;;;;;;;21.42;8.95;;;27.50;99.90;;;;;;5012275;28;20033;-48
2023/07/15 09:54:02;;;;;;;16.30;5.82;;;27.50;99.90;;;;;;5012365;28;20049;-47
2023/07/15 09:56:39;;;;;;;18.08;4.80;;;27.60;99.90;;;;;;5012184;28;20048;-47
2023/07/15 09:59:26;;;;;;;17.95;5.90;;;27.60;99.90;;;;;;5012497;28;20115;-47
2023/07/15 10:01:56;;;;;;;28.85;7.47;;;27.60;99.90;;;;;;5012116;28;20049;-46
2023/07/15 10:04:24;;;;;;;21.42;7.60;;;27.60;99.90;;;;;;5008787;28;20533;-47
2023/07/15 10:06:54;;;;;;;16.23;9.80;;;27.70;99.90;;;;;;4995546;28;20030;-48
2023/07/15 10:09:21;;;;;;;14.35;6.45;;;27.60;99.90;;;;;;5012274;28;20114;-47
2023/07/15 10:11:48;;;;;;;18.95;6.45;;;27.70;99.90;;;;;;5011837;28;20034;-47
2023/07/15 10:14:15;;;;;;;18.30;5.22;;;27.70;99.90;;;;;;5012028;28;20438;-47
2023/07/15 10:16:40;;;;;;;18.25;4.90;;;27.80;99.90;;;;;;5011967;28;20466;-48
2023/07/15 10:19:49;;;;;;;16.00;4.20;;;27.80;99.90;;;;;;5012208;28;20030;-47
2023/07/15 10:22:21;;;;;;;15.80;4.18;;;27.80;99.90;;;;;;5006822;28;20057;-48
2023/07/15 10:24:57;;;;;;;13.88;4.25;;;27.90;99.90;;;;;;5011771;28;20422;-48
2023/07/15 10:27:28;;;;;;;17.23;5.28;;;27.90;99.90;;;;;;5011656;28;20433;-47
2023/07/15 10:30:17;;;;;;;17.10;4.97;;;27.90;99.90;;;;;;5025038;28;20421;-47
2023/07/15 10:33:00;;;;;;;16.88;5.00;;;27.90;99.90;;;;;;4992242;28;20030;-48
2023/07/15 10:35:35;;;;;;;10.82;4.15;;;27.90;99.90;;;;;;4999662;28;20418;-47
2023/07/15 10:38:23;;;;;;;21.42;5.35;;;28.00;99.90;;;;;;5015876;28;20026;-47
2023/07/15 10:40:49;;;;;;;19.90;5.25;;;28.00;99.90;;;;;;5009036;28;20034;-48
2023/07/15 10:43:33;;;;;;;21.13;6.03;;;28.00;99.90;;;;;;5006736;28;20033;-47
2023/07/15 10:46:04;;;;;;;15.57;5.25;;;28.10;99.90;;;;;;5003857;28;20044;-48
2023/07/15 10:48:30;;;;;;;16.77;6.07;;;28.10;99.90;;;;;;5013916;28;20034;-48
2023/07/15 10:50:59;;;;;;;13.95;5.00;;;28.20;99.90;;;;;;5015144;28;20022;-48
2023/07/15 10:53:26;;;;;;;19.08;4.43;;;28.20;99.90;;;;;;5015260;28;20453;-48
2023/07/15 10:55:58;;;;;;;14.65;4.50;;;28.20;99.90;;;;;;5015073;28;20089;-48
2023/07/15 10:58:28;;;;;;;20.35;5.18;;;28.20;99.90;;;;;;5030704;28;20133;-49
2023/07/15 11:01:01;;;;;;;22.38;5.10;;;28.30;99.90;;;;;;5014219;28;20045;-47
2023/07/15 11:03:29;;;;;;;12.02;4.78;;;28.30;99.90;;;;;;5015055;28;20104;-48
2023/07/15 11:05:56;;;;;;;;;;;28.40;99.90;;;;;;5015221;28;20018;-49
2023/07/15 11:08:22;;;;;;;13.40;4.93;;;28.40;99.90;;;;;;5015467;28;20381;-48
2023/07/15 11:10:49;;;;;;;23.23;5.53;;;28.50;99.90;;;;;;5015425;28;20030;-49
2023/07/15 11:13:17;;;;;;;19.55;6.82;;;28.50;99.90;;;;;;5015027;28;20034;-48
2023/07/15 11:15:46;;;;;;;12.23;6.68;;;28.50;99.90;;;;;;5015104;28;20022;-48
2023/07/15 11:18:20;;;;;;;15.60;7.85;;;28.50;99.90;;;;;;5015486;28;20105;-48
2023/07/15 11:20:46;;;;;;;16.73;6.65;;;28.60;99.90;;;;;;5030125;28;20448;-49
2023/07/15 11:23:16;;;;;;;18.38;6.22;;;28.60;99.90;;;;;;5015297;28;20022;-48
2023/07/15 11:25:42;;;;;;;14.05;5.88;;;28.60;99.90;;;;;;5015035;28;20018;-48
2023/07/15 11:28:09;;;;;;;19.40;5.53;;;28.70;99.90;;;;;;5013915;28;20120;-49
2023/07/15 11:30:47;;;;;;;16.20;6.00;;;28.70;99.90;;;;;;5015244;28;20466;-49
2023/07/15 11:33:14;;;;;;;19.13;9.25;;;28.80;99.90;;;;;;5014845;28;20486;-48
2023/07/15 11:35:41;;;;;;;21.45;8.75;;;28.80;99.90;;;;;;5015206;28;20463;-48
2023/07/15 11:38:15;;;;;;;18.02;11.13;;;28.80;99.90;;;;;;5014685;28;20056;-48
2023/07/15 11:40:56;;;;;;;26.25;13.48;;;28.80;99.90;;;;;;5015104;28;20018;-48
2023/07/15 11:43:25;;;;;;;21.48;9.48;;;28.90;99.90;;;;;;5013080;28;20026;-49
2023/07/15 11:45:56;;;;;;;26.02;10.23;;;29.00;99.90;;;;;;5014749;28;20036;-49
2023/07/15 11:48:26;;;;;;;17.05;7.05;;;29.00;99.90;;;;;;5013304;28;20474;-48
2023/07/15 11:50:57;;;;;;;20.63;8.93;;;29.10;99.90;;;;;;5029760;28;20400;-48
2023/07/15 11:53:34;;;;;;;16.85;5.35;;;29.10;99.90;;;;;;5014042;28;20113;-49
2023/07/15 11:56:00;;;;;;;13.57;6.45;;;29.20;99.90;;;;;;5014464;28;20113;-49
2023/07/15 11:58:53;;;;;;;13.25;4.80;;;29.20;99.90;;;;;;5013803;28;20129;-49
2023/07/15 12:01:25;;;;;;;11.95;4.70;;;29.30;99.90;;;;;;5014220;28;20125;-48
2023/07/15 12:03:51;;;;;;;19.50;5.57;;;29.30;99.90;;;;;;5014708;28;20018;-49
2023/07/15 12:06:19;;;;;;;16.20;5.55;;;29.40;99.90;;;;;;5014099;28;20113;-49
2023/07/15 12:09:10;;;;;;;14.32;4.72;;;29.40;99.90;;;;;;5014067;28;20421;-49
2023/07/15 12:11:36;;;;;;;15.80;4.60;;;29.50;99.90;;;;;;5028203;28;20088;-48
2023/07/15 12:14:03;;;;;;;12.68;6.25;;;29.60;99.90;;;;;;5013897;28;20067;-48
2023/07/15 12:16:30;;;;;;;26.55;12.10;;;29.60;99.90;;;;;;5013999;28;20014;-48
2023/07/15 12:18:57;;;;;;;22.17;11.68;;;29.60;99.90;;;;;;5014231;28;20030;-48
2023/07/15 12:21:23;;;;;;;17.77;7.97;;;29.70;99.90;;;;;;5012486;28;20024;-48
2023/07/15 12:23:52;;;;;;;34.63;19.58;;;29.70;99.90;;;;;;5014023;28;20022;-49
2023/07/15 12:26:19;;;;;;;19.58;9.82;;;29.70;99.90;;;;;;5013642;28;20099;-49
2023/07/15 12:28:45;;;;;;;10.63;6.30;;;29.80;99.90;;;;;;5014105;28;20370;-49
2023/07/15 12:31:11;;;;;;;21.38;12.68;;;29.80;99.90;;;;;;5014384;28;20081;-49
2023/07/15 12:33:37;;;;;;;22.92;12.77;;;29.80;99.90;;;;;;5013958;28;20030;-49
2023/07/15 12:36:03;;;;;;;15.55;7.72;;;29.90;99.90;;;;;;5013702;28;20022;-48